createdAt,value
2023-04-26T00:02:08.093Z,9.48
2023-04-26T00:04:36.225Z,11.23
2023-04-26T00:07:04.175Z,10.10
2023-04-26T00:09:32.227Z,14.45
2023-04-26T00:11:59.965Z,13.98
2023-04-26T00:14:27.530Z,11.43
2023-04-26T00:16:54.992Z,11.52
2023-04-26T00:19:23.072Z,10.63
2023-04-26T00:21:50.913Z,12.48
2023-04-26T00:24:18.442Z,11.05
2023-04-26T00:26:45.983Z,11.45
2023-04-26T00:29:13.630Z,10.27
2023-04-26T00:31:43.891Z,11.68
2023-04-26T00:34:11.617Z,12.35
2023-04-26T00:36:39.435Z,11.70
2023-04-26T00:39:07.265Z,12.02
2023-04-26T00:41:35.032Z,13.90
2023-04-26T00:44:02.809Z,12.05
2023-04-26T00:46:31.681Z,10.38
2023-04-26T00:48:59.336Z,9.80
2023-04-26T00:51:27.751Z,13.88
2023-04-26T00:53:55.240Z,10.85
2023-04-26T00:56:23.260Z,14.02
2023-04-26T00:58:51.090Z,11.80
2023-04-26T01:01:18.838Z,12.75
2023-04-26T01:03:47.600Z,11.65
2023-04-26T01:06:15.545Z,11.77
2023-04-26T01:08:43.182Z,12.10
2023-04-26T01:11:11.261Z,15.73
2023-04-26T01:13:39.144Z,10.05
2023-04-26T01:16:08.708Z,11.85
2023-04-26T01:18:36.742Z,12.48
2023-04-26T01:21:05.682Z,12.50
2023-04-26T01:23:33.407Z,13.18
2023-04-26T01:26:01.179Z,13.13
2023-04-26T01:28:28.687Z,12.02
2023-04-26T01:30:56.309Z,11.60
2023-04-26T01:33:23.841Z,9.93
2023-04-26T01:35:51.336Z,11.65
2023-04-26T01:38:20.769Z,11.13
2023-04-26T01:40:49.487Z,12.95
2023-04-26T01:43:19.480Z,14.00
2023-04-26T01:45:49.839Z,11.57
2023-04-26T01:48:17.616Z,12.48
2023-04-26T01:50:45.104Z,14.35
2023-04-26T01:53:15.780Z,11.77
2023-04-26T01:55:43.266Z,10.85
2023-04-26T01:58:11.556Z,12.65
2023-04-26T02:00:39.120Z,10.68
2023-04-26T02:03:06.968Z,15.07
2023-04-26T02:05:34.666Z,11.07
2023-04-26T02:08:02.080Z,13.52
2023-04-26T02:10:29.558Z,11.90
2023-04-26T02:12:57.144Z,16.33
2023-04-26T02:15:24.607Z,14.23
2023-04-26T02:17:54.242Z,16.50
2023-04-26T02:20:21.925Z,11.05
2023-04-26T02:22:49.492Z,13.32
2023-04-26T02:25:17.745Z,12.13
2023-04-26T02:27:45.963Z,12.27
2023-04-26T02:30:14.657Z,13.63
2023-04-26T02:32:42.741Z,11.35
2023-04-26T02:35:11.428Z,12.25
2023-04-26T02:37:38.947Z,13.15
2023-04-26T02:40:07.047Z,14.70
2023-04-26T02:42:34.587Z,12.38
2023-04-26T02:45:02.051Z,16.77
2023-04-26T02:47:29.570Z,12.60
2023-04-26T02:49:57.195Z,12.98
2023-04-26T02:52:27.615Z,16.30
2023-04-26T02:54:57.995Z,13.30
2023-04-26T02:57:25.488Z,14.45
2023-04-26T02:59:52.950Z,13.05
2023-04-26T03:02:20.800Z,13.55
2023-04-26T03:04:48.610Z,13.55
2023-04-26T03:07:16.484Z,13.27
2023-04-26T03:09:44.021Z,13.35
2023-04-26T03:12:12.913Z,13.55
2023-04-26T03:14:40.599Z,13.30
2023-04-26T03:17:08.311Z,15.50
2023-04-26T03:19:35.869Z,14.77
2023-04-26T03:22:03.440Z,11.88
2023-04-26T03:24:32.376Z,12.65
2023-04-26T03:27:00.604Z,13.88
2023-04-26T03:29:28.053Z,11.40
2023-04-26T03:31:55.680Z,14.05
2023-04-26T03:34:23.332Z,13.75
2023-04-26T03:36:50.986Z,12.50
2023-04-26T03:39:18.595Z,13.38
2023-04-26T03:41:46.760Z,12.35
2023-04-26T03:44:14.949Z,14.68
2023-04-26T03:46:43.476Z,18.00
2023-04-26T03:49:11.401Z,14.32
2023-04-26T03:51:38.950Z,12.82
2023-04-26T03:54:06.949Z,15.30
2023-04-26T03:56:37.711Z,16.83
2023-04-26T03:59:05.396Z,15.25
2023-04-26T04:01:32.921Z,13.95
2023-04-26T04:04:00.777Z,17.55
2023-04-26T04:06:28.460Z,14.25
2023-04-26T04:08:56.031Z,14.50
2023-04-26T04:11:23.885Z,14.32
2023-04-26T04:13:51.450Z,15.38
2023-04-26T04:16:19.243Z,11.73
2023-04-26T04:18:47.158Z,11.95
2023-04-26T04:21:14.674Z,13.45
2023-04-26T04:23:42.975Z,11.73
2023-04-26T04:26:13.072Z,11.45
2023-04-26T04:28:42.116Z,11.98
2023-04-26T04:31:12.354Z,14.75
2023-04-26T04:33:40.168Z,15.15
2023-04-26T04:36:07.952Z,15.10
2023-04-26T04:38:36.526Z,18.13
2023-04-26T04:41:04.845Z,10.13
2023-04-26T04:43:32.383Z,17.02
2023-04-26T04:45:59.967Z,13.52
2023-04-26T04:48:27.454Z,13.30
2023-04-26T04:50:55.094Z,14.50
2023-04-26T04:53:22.652Z,15.43
2023-04-26T04:55:50.114Z,14.27
2023-04-26T04:58:20.214Z,15.68
2023-04-26T05:00:47.909Z,16.77
2023-04-26T05:03:16.003Z,13.10
2023-04-26T05:05:44.042Z,12.38
2023-04-26T05:08:11.522Z,13.57
2023-04-26T05:10:39.057Z,16.40
2023-04-26T05:13:06.778Z,10.45
2023-04-26T05:15:34.298Z,13.30
2023-04-26T05:18:02.012Z,17.65
2023-04-26T05:20:30.357Z,13.68
2023-04-26T05:22:57.816Z,10.40
2023-04-26T05:25:25.225Z,14.50
2023-04-26T05:27:52.930Z,9.98
2023-04-26T05:30:20.435Z,14.48
2023-04-26T05:32:48.152Z,11.32
2023-04-26T05:35:16.362Z,9.48
2023-04-26T05:37:43.894Z,21.23
2023-04-26T05:40:13.017Z,13.52
2023-04-26T05:42:40.622Z,16.38
2023-04-26T05:45:08.888Z,17.73
2023-04-26T05:47:37.391Z,22.85
2023-04-26T05:50:05.099Z,24.77
2023-04-26T05:52:32.829Z,10.18
2023-04-26T05:55:00.607Z,15.32
2023-04-26T05:57:28.249Z,29.60
2023-04-26T05:59:59.037Z,33.20
2023-04-26T06:02:27.058Z,18.40
2023-04-26T06:04:58.174Z,19.35
2023-04-26T06:07:26.889Z,41.97
2023-04-26T06:09:54.392Z,40.80
2023-04-26T06:12:22.204Z,26.17
2023-04-26T06:14:49.982Z,10.43
2023-04-26T06:17:17.451Z,12.85
2023-04-26T06:19:45.371Z,13.77
2023-04-26T06:22:15.699Z,15.15
2023-04-26T06:24:43.309Z,16.25
2023-04-26T06:27:10.980Z,17.38
2023-04-26T06:29:38.429Z,16.80
2023-04-26T06:32:06.121Z,14.20
2023-04-26T06:34:34.113Z,14.25
2023-04-26T06:37:01.830Z,17.48
2023-04-26T06:39:29.292Z,22.23
2023-04-26T06:41:56.931Z,17.92
2023-04-26T06:44:24.656Z,13.48
2023-04-26T06:46:54.879Z,23.13
2023-04-26T06:49:22.499Z,51.50
2023-04-26T06:51:50.080Z,30.85
2023-04-26T06:54:17.783Z,17.27
2023-04-26T06:56:45.304Z,26.80
2023-04-26T06:59:15.850Z,27.55
2023-04-26T07:01:44.101Z,24.30
2023-04-26T07:04:12.100Z,18.25
2023-04-26T07:06:40.185Z,25.10
2023-04-26T07:09:08.528Z,20.90
2023-04-26T07:11:36.358Z,30.60
2023-04-26T07:14:03.939Z,30.40
2023-04-26T07:16:32.847Z,24.60
2023-04-26T07:19:00.393Z,21.00
2023-04-26T07:21:28.088Z,19.60
2023-04-26T07:23:59.099Z,31.88
2023-04-26T07:26:27.145Z,28.20
2023-04-26T07:28:55.020Z,22.52
2023-04-26T07:31:22.486Z,18.10
2023-04-26T07:33:50.062Z,19.73
2023-04-26T07:36:18.883Z,18.20
2023-04-26T07:38:46.635Z,27.08
2023-04-26T07:41:17.321Z,17.30
2023-04-26T07:43:45.028Z,20.75
2023-04-26T07:46:12.505Z,25.48
2023-04-26T07:48:40.351Z,19.20
2023-04-26T07:51:14.681Z,17.00
2023-04-26T07:53:42.371Z,24.42
2023-04-26T07:56:10.225Z,28.75
2023-04-26T07:58:39.633Z,20.02
2023-04-26T08:01:07.236Z,33.13
2023-04-26T08:03:34.955Z,16.50
2023-04-26T08:06:03.203Z,15.57
2023-04-26T08:08:30.797Z,17.23
2023-04-26T08:10:58.594Z,16.77
2023-04-26T08:13:29.190Z,17.25
2023-04-26T08:15:57.096Z,15.50
2023-04-26T08:18:24.769Z,17.85
2023-04-26T08:20:52.297Z,12.60
2023-04-26T08:23:20.294Z,11.77
2023-04-26T08:25:48.133Z,11.45
2023-04-26T08:28:15.690Z,12.52
2023-04-26T08:30:43.893Z,13.13
2023-04-26T08:33:11.447Z,14.20
2023-04-26T08:35:39.126Z,18.98
2023-04-26T08:38:06.836Z,56.35
2023-04-26T08:40:34.535Z,26.95
2023-04-26T08:43:02.467Z,17.75
2023-04-26T08:45:30.114Z,20.02
2023-04-26T08:48:04.976Z,21.27
2023-04-26T08:50:34.696Z,28.20
2023-04-26T08:53:02.518Z,36.85
2023-04-26T08:55:31.048Z,48.30
2023-04-26T08:57:58.876Z,43.50
2023-04-26T09:00:26.974Z,35.80
2023-04-26T09:02:54.957Z,61.78
2023-04-26T09:05:25.005Z,104.13
2023-04-26T09:07:58.086Z,73.15
2023-04-26T09:10:26.207Z,78.78
2023-04-26T09:12:54.034Z,67.32
2023-04-26T09:15:23.603Z,59.88
2023-04-26T09:17:52.489Z,69.57
2023-04-26T09:20:30.149Z,65.22
2023-04-26T09:23:10.698Z,41.90
2023-04-26T09:25:38.311Z,51.55
2023-04-26T09:28:20.059Z,22.60
2023-04-26T09:30:47.563Z,55.58
2023-04-26T09:33:15.365Z,35.75
2023-04-26T09:35:44.366Z,35.70
2023-04-26T09:38:16.491Z,34.28
2023-04-26T09:40:45.643Z,21.98
2023-04-26T09:43:14.344Z,28.85
2023-04-26T09:45:47.928Z,32.90
2023-04-26T09:48:17.545Z,26.30
2023-04-26T09:50:49.310Z,27.73
2023-04-26T09:53:29.922Z,25.48
2023-04-26T09:55:57.675Z,17.75
2023-04-26T09:58:25.276Z,12.07
2023-04-26T10:00:55.630Z,16.65
2023-04-26T10:03:24.280Z,15.32
2023-04-26T10:05:52.073Z,12.85
2023-04-26T10:08:19.548Z,17.88
2023-04-26T10:10:48.124Z,16.65
2023-04-26T10:13:16.128Z,20.90
2023-04-26T10:15:44.176Z,13.85
2023-04-26T10:18:11.705Z,14.50
2023-04-26T10:20:44.224Z,31.15
2023-04-26T10:23:20.813Z,22.70
2023-04-26T10:25:49.241Z,23.50
2023-04-26T10:28:16.840Z,21.55
2023-04-26T10:31:00.226Z,19.27
2023-04-26T10:33:28.575Z,22.92
2023-04-26T10:36:03.456Z,19.92
2023-04-26T10:38:30.991Z,15.02
2023-04-26T10:41:18.334Z,19.17
2023-04-26T10:43:46.115Z,27.45
2023-04-26T10:46:48.915Z,21.13
2023-04-26T10:49:18.168Z,27.42
2023-04-26T10:52:09.044Z,21.42
2023-04-26T10:54:46.378Z,22.55
2023-04-26T10:57:15.115Z,27.75
2023-04-26T11:00:02.456Z,21.70
2023-04-26T11:02:52.414Z,17.48
2023-04-26T11:05:41.671Z,20.30
2023-04-26T11:08:16.003Z,15.55
2023-04-26T11:10:44.577Z,16.25
2023-04-26T11:13:12.822Z,35.22
2023-04-26T11:15:40.576Z,27.00
2023-04-26T11:18:08.351Z,42.28
2023-04-26T11:20:36.005Z,40.47
2023-04-26T11:23:03.844Z,40.38
2023-04-26T11:25:31.865Z,47.03
2023-04-26T11:28:03.655Z,37.78
2023-04-26T11:30:34.380Z,21.05
2023-04-26T11:33:03.310Z,36.55
2023-04-26T11:35:31.532Z,29.90
2023-04-26T11:37:59.496Z,33.55
2023-04-26T11:40:30.934Z,28.25
2023-04-26T11:43:07.939Z,21.05
2023-04-26T11:45:39.400Z,21.85
2023-04-26T11:48:08.460Z,15.30
2023-04-26T11:50:37.740Z,20.63
2023-04-26T11:53:07.465Z,20.38
2023-04-26T11:55:35.919Z,24.67
2023-04-26T11:58:10.756Z,22.30
2023-04-26T12:00:38.708Z,12.13
2023-04-26T12:03:11.934Z,16.10
2023-04-26T12:05:39.798Z,18.80
2023-04-26T12:08:07.425Z,15.20
2023-04-26T12:10:39.843Z,9.80
2023-04-26T12:13:07.513Z,10.85
2023-04-26T12:15:35.744Z,9.25
2023-04-26T12:18:12.199Z,10.00
2023-04-26T12:20:41.105Z,10.77
2023-04-26T12:23:09.570Z,11.85
2023-04-26T12:25:40.989Z,9.15
2023-04-26T12:28:14.284Z,5.00
2023-04-26T12:30:42.044Z,7.85
2023-04-26T12:33:16.924Z,5.07
2023-04-26T12:35:45.197Z,5.00
2023-04-26T12:38:13.738Z,3.72
2023-04-26T12:40:46.480Z,3.33
2023-04-26T12:43:14.014Z,3.00
2023-04-26T12:45:41.764Z,4.53
2023-04-26T12:48:09.487Z,3.70
2023-04-26T12:50:37.028Z,3.60
2023-04-26T12:53:05.130Z,9.57
2023-04-26T12:55:33.120Z,12.95
2023-04-26T12:58:00.889Z,7.65
2023-04-26T13:00:28.426Z,21.20
2023-04-26T13:02:56.531Z,13.90
2023-04-26T13:05:27.758Z,16.90
2023-04-26T13:07:55.333Z,23.85
2023-04-26T13:10:22.875Z,21.13
2023-04-26T13:12:50.443Z,27.02
2023-04-26T13:15:18.057Z,22.98
2023-04-26T13:17:46.237Z,31.23
2023-04-26T13:20:14.265Z,27.48
2023-04-26T13:22:43.179Z,29.75
2023-04-26T13:25:11.683Z,28.98
2023-04-26T13:27:39.456Z,29.48
2023-04-26T13:30:07.347Z,27.35
2023-04-26T13:32:34.902Z,29.80
2023-04-26T13:35:03.000Z,25.65
2023-04-26T13:37:30.553Z,29.92
2023-04-26T13:39:59.083Z,28.48
2023-04-26T13:42:26.845Z,25.63
2023-04-26T13:44:54.315Z,25.80
2023-04-26T13:47:21.935Z,23.83
2023-04-26T13:49:49.545Z,33.47
2023-04-26T13:52:17.006Z,30.38
2023-04-26T13:54:44.596Z,26.33
2023-04-26T13:57:12.510Z,27.60
2023-04-26T13:59:41.272Z,29.35
2023-04-26T14:02:09.989Z,31.77
2023-04-26T14:04:38.129Z,26.30
2023-04-26T14:07:06.720Z,37.75
2023-04-26T14:09:34.286Z,25.30
2023-04-26T14:12:08.465Z,29.50
2023-04-26T14:14:36.936Z,25.73
2023-04-26T14:17:04.575Z,32.13
2023-04-26T14:19:32.027Z,31.27
2023-04-26T14:21:59.649Z,30.17
2023-04-26T14:24:27.241Z,31.75
2023-04-26T14:26:54.738Z,32.53
2023-04-26T14:29:25.032Z,25.63
2023-04-26T14:31:52.737Z,24.42
2023-04-26T14:34:20.611Z,26.65
2023-04-26T14:36:48.075Z,26.58
2023-04-26T14:39:16.897Z,27.35
2023-04-26T14:41:44.519Z,30.90
2023-04-26T14:44:12.050Z,27.08
2023-04-26T14:46:39.654Z,27.15
2023-04-26T14:49:07.762Z,25.83
2023-04-26T14:51:35.226Z,22.67
2023-04-26T14:54:02.938Z,23.40
2023-04-26T14:56:37.054Z,21.80
2023-04-26T14:59:04.690Z,23.45
2023-04-26T15:01:32.507Z,24.27
2023-04-26T15:04:01.328Z,21.52
2023-04-26T15:06:29.694Z,28.48
2023-04-26T15:08:57.115Z,21.08
2023-04-26T15:11:24.571Z,20.98
2023-04-26T15:13:52.227Z,23.10
2023-04-26T15:16:23.417Z,24.35
2023-04-26T15:18:53.090Z,26.13
2023-04-26T15:21:23.432Z,22.98
2023-04-26T15:23:51.351Z,29.77
2023-04-26T15:26:19.037Z,26.88
2023-04-26T15:28:46.947Z,22.90
2023-04-26T15:31:14.430Z,19.48
2023-04-26T15:33:42.368Z,35.03
2023-04-26T15:36:10.013Z,28.08
2023-04-26T15:38:37.857Z,22.27
2023-04-26T15:41:05.445Z,19.33
2023-04-26T15:43:33.420Z,27.38
2023-04-26T15:46:00.945Z,26.58
2023-04-26T15:48:28.452Z,31.60
2023-04-26T15:50:57.312Z,25.65
2023-04-26T15:53:25.066Z,22.38
2023-04-26T15:55:52.540Z,19.08
2023-04-26T15:58:22.702Z,23.38
2023-04-26T16:00:50.475Z,23.30
2023-04-26T16:03:18.164Z,19.17
2023-04-26T16:05:46.065Z,17.25
2023-04-26T16:08:14.825Z,14.50
2023-04-26T16:10:48.045Z,19.05
2023-04-26T16:13:16.054Z,31.50
2023-04-26T16:15:46.227Z,16.63
2023-04-26T16:18:13.833Z,18.00
2023-04-26T16:20:41.688Z,13.50
2023-04-26T16:23:09.356Z,12.05
2023-04-26T16:25:36.902Z,12.07
2023-04-26T16:28:04.511Z,11.15
2023-04-26T16:30:32.142Z,14.45
2023-04-26T16:32:59.668Z,12.65
2023-04-26T16:35:27.143Z,10.57
2023-04-26T16:37:54.828Z,9.07
2023-04-26T16:40:24.350Z,10.40
2023-04-26T16:42:51.800Z,11.63
2023-04-26T16:45:19.587Z,13.32
2023-04-26T16:47:47.178Z,8.07
2023-04-26T16:50:14.990Z,17.52
2023-04-26T16:52:42.451Z,7.43
2023-04-26T16:55:10.054Z,9.88
2023-04-26T16:57:37.647Z,8.70
2023-04-26T17:00:08.517Z,14.20
2023-04-26T17:02:38.374Z,11.70
2023-04-26T17:05:06.378Z,13.27
2023-04-26T17:07:34.133Z,13.48
2023-04-26T17:10:02.007Z,9.23
2023-04-26T17:12:29.938Z,9.27
2023-04-26T17:14:57.431Z,13.48
2023-04-26T17:17:24.981Z,9.25
2023-04-26T17:19:52.533Z,9.00
2023-04-26T17:22:19.991Z,16.02
2023-04-26T17:24:47.482Z,6.88
2023-04-26T17:27:15.742Z,6.63
2023-04-26T17:29:44.630Z,7.57
2023-04-26T17:32:12.467Z,4.72
2023-04-26T17:34:40.297Z,6.75
2023-04-26T17:37:08.207Z,6.13
2023-04-26T17:39:36.442Z,6.18
2023-04-26T17:42:04.005Z,8.93
2023-04-26T17:44:31.457Z,6.43
2023-04-26T17:46:58.955Z,5.70
2023-04-26T17:49:27.265Z,3.95
2023-04-26T17:51:57.638Z,5.80
2023-04-26T17:54:25.738Z,7.60
2023-04-26T17:56:53.375Z,5.07
2023-04-26T17:59:20.868Z,14.05
2023-04-26T18:01:48.669Z,6.97
2023-04-26T18:04:16.768Z,3.72
2023-04-26T18:06:44.655Z,5.38
2023-04-26T18:09:12.159Z,7.43
2023-04-26T18:11:39.702Z,3.40
2023-04-26T18:14:07.292Z,4.78
2023-04-26T18:16:34.838Z,4.10
2023-04-26T18:19:02.316Z,4.07
2023-04-26T18:21:29.964Z,5.38
2023-04-26T18:23:57.488Z,2.65
2023-04-26T18:26:25.137Z,3.50
2023-04-26T18:28:52.703Z,5.35
2023-04-26T18:31:21.528Z,2.80
2023-04-26T18:33:49.849Z,5.15
2023-04-26T18:36:18.149Z,2.70
2023-04-26T18:38:45.796Z,9.65
2023-04-26T18:41:13.239Z,3.22
2023-04-26T18:43:40.783Z,2.85
2023-04-26T18:46:08.353Z,2.35
2023-04-26T18:48:35.875Z,6.50
2023-04-26T18:51:03.472Z,4.40
2023-04-26T18:53:31.259Z,5.43
2023-04-26T18:55:58.770Z,6.30
2023-04-26T18:58:26.323Z,4.13
2023-04-26T19:00:57.028Z,4.55
2023-04-26T19:03:25.221Z,2.65
2023-04-26T19:05:53.353Z,5.90
2023-04-26T19:08:21.174Z,2.65
2023-04-26T19:10:48.650Z,3.67
2023-04-26T19:13:16.101Z,3.40
2023-04-26T19:15:43.661Z,3.38
2023-04-26T19:18:11.287Z,3.35
2023-04-26T19:20:38.889Z,7.15
2023-04-26T19:23:06.902Z,3.47
2023-04-26T19:25:35.057Z,2.08
2023-04-26T19:28:02.545Z,4.00
2023-04-26T19:30:30.157Z,6.60
2023-04-26T19:32:57.906Z,2.40
2023-04-26T19:35:26.279Z,8.13
2023-04-26T19:37:53.763Z,3.00
2023-04-26T19:40:22.153Z,3.38
2023-04-26T19:42:52.404Z,5.10
2023-04-26T19:45:21.206Z,3.05
2023-04-26T19:47:48.802Z,2.50
2023-04-26T19:50:16.406Z,2.10
2023-04-26T19:52:43.957Z,1.52
2023-04-26T19:55:11.381Z,2.05
2023-04-26T19:57:39.357Z,4.22
2023-04-26T20:00:08.941Z,3.00
2023-04-26T20:02:36.729Z,3.35
2023-04-26T20:05:04.735Z,2.88
2023-04-26T20:07:32.364Z,2.83
2023-04-26T20:09:59.887Z,2.03
2023-04-26T20:12:28.014Z,3.75
2023-04-26T20:14:55.501Z,2.40
2023-04-26T20:17:23.627Z,2.92
2023-04-26T20:19:52.009Z,2.50
2023-04-26T20:22:19.560Z,6.00
2023-04-26T20:24:47.294Z,5.03
2023-04-26T20:27:14.879Z,5.22
2023-04-26T20:29:42.475Z,1.38
2023-04-26T20:32:10.426Z,2.13
2023-04-26T20:34:38.004Z,22.88
2023-04-26T20:37:06.085Z,3.28
2023-04-26T20:39:34.657Z,1.88
2023-04-26T20:42:02.211Z,1.48
2023-04-26T20:44:30.613Z,3.60
2023-04-26T20:46:58.634Z,4.93
2023-04-26T20:49:26.048Z,1.58
2023-04-26T20:51:53.533Z,2.05
2023-04-26T20:54:22.538Z,5.07
2023-04-26T20:56:50.008Z,4.55
2023-04-26T20:59:17.503Z,1.70
2023-04-26T21:01:45.083Z,1.70
2023-04-26T21:04:12.983Z,3.15
2023-04-26T21:06:40.595Z,14.02
2023-04-26T21:09:08.482Z,1.38
2023-04-26T21:11:36.257Z,0.98
2023-04-26T21:14:04.915Z,0.93
2023-04-26T21:16:32.549Z,0.88
2023-04-26T21:19:00.034Z,1.80
2023-04-26T21:21:29.311Z,3.30
2023-04-26T21:23:59.500Z,2.88
2023-04-26T21:26:26.981Z,2.53
2023-04-26T21:28:54.677Z,1.38
2023-04-26T21:31:22.155Z,1.23
2023-04-26T21:33:50.633Z,1.30
2023-04-26T21:36:18.328Z,0.73
2023-04-26T21:38:45.758Z,4.47
2023-04-26T21:41:13.684Z,1.50
2023-04-26T21:43:41.704Z,3.47
2023-04-26T21:46:09.965Z,2.75
2023-04-26T21:48:39.429Z,1.23
2023-04-26T21:51:07.019Z,2.72
2023-04-26T21:53:34.918Z,3.38
2023-04-26T21:56:02.468Z,1.30
2023-04-26T21:58:30.317Z,1.30
2023-04-26T22:01:07.384Z,7.68
2023-04-26T22:03:37.740Z,1.13
2023-04-26T22:06:05.750Z,1.95
2023-04-26T22:08:33.216Z,1.60
2023-04-26T22:11:01.232Z,2.55
2023-04-26T22:13:28.756Z,2.00
2023-04-26T22:15:56.466Z,1.40
2023-04-26T22:18:23.960Z,1.40
2023-04-26T22:20:51.697Z,2.70
2023-04-26T22:23:19.150Z,1.50
2023-04-26T22:25:46.714Z,0.80
2023-04-26T22:28:14.174Z,1.10
2023-04-26T22:30:41.660Z,1.88
2023-04-26T22:33:10.814Z,1.23
2023-04-26T22:35:38.454Z,1.67
2023-04-26T22:38:06.095Z,2.13
2023-04-26T22:40:33.557Z,1.10
2023-04-26T22:43:01.018Z,3.00
2023-04-26T22:45:28.598Z,6.65
2023-04-26T22:47:56.191Z,1.20
2023-04-26T22:50:23.817Z,1.13
2023-04-26T22:52:51.822Z,0.93
2023-04-26T22:55:19.358Z,1.38
2023-04-26T22:57:47.380Z,1.60
2023-04-26T23:00:15.266Z,1.25
2023-04-26T23:02:42.978Z,0.95
2023-04-26T23:05:10.794Z,2.60
2023-04-26T23:07:39.032Z,0.95
2023-04-26T23:10:07.281Z,1.30
2023-04-26T23:12:37.664Z,2.95
2023-04-26T23:15:06.630Z,2.40
2023-04-26T23:17:34.981Z,1.17
2023-04-26T23:20:02.737Z,1.90
2023-04-26T23:22:30.216Z,1.48
2023-04-26T23:24:58.371Z,4.55
2023-04-26T23:27:26.084Z,1.40
2023-04-26T23:29:53.591Z,4.43
2023-04-26T23:32:21.087Z,1.13
2023-04-26T23:34:48.563Z,1.40
2023-04-26T23:37:16.755Z,2.63
2023-04-26T23:39:44.455Z,1.70
2023-04-26T23:42:12.494Z,1.88
2023-04-26T23:44:40.356Z,1.00
2023-04-26T23:47:07.933Z,1.63
2023-04-26T23:49:38.297Z,2.20
2023-04-26T23:52:09.547Z,2.22
2023-04-26T23:54:36.993Z,1.20
2023-04-26T23:57:07.810Z,1.30
2023-04-26T23:59:35.382Z,0.98
